Terminal Aerodrome Forecast
Issued by NWS Albuquerque, NM

Current Version | Previous Version | Text Only | Print | Product List | Glossary On
Versions: 1 2 3 4 5 6 7 8 9 10 11 12 13 14
000
FTUS45 KABQ 281100 RRA
TAFABQ
TAF
KABQ 281141Z 2812/2912 VRB06KT P6SM SKC
     FM282100 27010G18KT P6SM SKC
     FM290200 VRB04KT P6SM SKC=

USA.gov is the U.S. government's official web portal to all federal, state and local government web resources and services.